createdAt,value
2019-01-08T00:03:39.162Z,23.57
2019-01-08T00:08:31.621Z,26.70
2019-01-08T00:13:23.940Z,20.77
2019-01-08T00:18:16.288Z,23.47
2019-01-08T00:23:08.675Z,23.30
2019-01-08T00:28:01.002Z,22.77
2019-01-08T00:32:53.038Z,22.37
2019-01-08T00:37:45.013Z,21.87
2019-01-08T00:42:37.204Z,18.60
2019-01-08T00:47:29.589Z,18.60
2019-01-08T00:52:21.916Z,15.53
2019-01-08T00:57:14.321Z,13.63
2019-01-08T01:02:06.592Z,15.30
2019-01-08T01:06:58.722Z,12.93
2019-01-08T01:11:51.070Z,13.63
2019-01-08T01:16:43.331Z,12.47
2019-01-08T01:21:35.781Z,14.27
2019-01-08T01:26:27.831Z,14.27
2019-01-08T01:31:20.452Z,13.50
2019-01-08T01:36:12.528Z,12.30
2019-01-08T01:41:04.877Z,11.33
2019-01-08T01:45:56.912Z,9.40
2019-01-08T01:50:49.072Z,10.77
2019-01-08T01:55:41.145Z,8.47
2019-01-08T02:00:33.338Z,9.50
2019-01-08T02:05:25.536Z,7.30
2019-01-08T02:10:17.841Z,8.50
2019-01-08T02:15:10.349Z,8.07
2019-01-08T02:20:02.521Z,8.17
2019-01-08T02:24:54.752Z,6.70
2019-01-08T02:29:47.169Z,7.27
2019-01-08T02:34:39.479Z,6.53
2019-01-08T02:39:31.776Z,5.80
2019-01-08T02:44:24.204Z,5.83
2019-01-08T02:49:16.568Z,4.30
2019-01-08T02:54:08.982Z,4.00
2019-01-08T02:59:00.938Z,3.70
2019-01-08T03:03:53.325Z,3.37
2019-01-08T03:08:45.360Z,4.20
2019-01-08T03:13:37.785Z,4.37
2019-01-08T03:18:29.969Z,4.30
2019-01-08T03:23:22.367Z,3.80
2019-01-08T03:28:14.809Z,4.37
2019-01-08T03:33:06.818Z,3.97
2019-01-08T03:37:59.181Z,4.10
2019-01-08T03:42:51.528Z,4.60
2019-01-08T03:47:43.861Z,4.90
2019-01-08T03:52:35.878Z,4.50
2019-01-08T03:57:28.413Z,3.87
2019-01-08T04:02:20.795Z,3.73
2019-01-08T04:07:13.176Z,4.00
2019-01-08T04:12:05.373Z,4.20
2019-01-08T04:16:57.840Z,4.00
2019-01-08T04:21:49.845Z,4.20
2019-01-08T04:26:42.269Z,3.90
2019-01-08T04:31:34.633Z,4.30
2019-01-08T04:36:27.183Z,7.97
2019-01-08T04:41:19.181Z,4.80
2019-01-08T04:46:11.237Z,6.27
2019-01-08T04:51:03.764Z,4.90
2019-01-08T04:55:56.208Z,4.67
2019-01-08T05:00:48.554Z,3.93
2019-01-08T05:05:40.719Z,4.37
2019-01-08T05:10:32.830Z,5.30
2019-01-08T05:15:24.761Z,4.10
2019-01-08T05:20:17.081Z,4.27
2019-01-08T05:25:09.565Z,3.60
2019-01-08T05:30:07.933Z,4.47
2019-01-08T05:34:55.238Z,4.60
2019-01-08T05:39:47.614Z,5.17
2019-01-08T05:44:39.961Z,5.23
2019-01-08T05:49:32.336Z,9.13
2019-01-08T05:54:24.644Z,8.03
2019-01-08T05:59:16.877Z,7.13
2019-01-08T06:04:09.009Z,7.80
2019-01-08T06:09:01.249Z,8.83
2019-01-08T06:13:53.437Z,7.80
2019-01-08T06:18:45.858Z,10.83
2019-01-08T06:23:37.910Z,13.70
2019-01-08T06:28:30.399Z,12.70
2019-01-08T06:33:22.917Z,20.10
2019-01-08T06:38:15.382Z,17.97
2019-01-08T06:43:07.559Z,15.73
2019-01-08T06:47:59.536Z,22.73
2019-01-08T06:52:51.613Z,20.70
2019-01-08T06:57:43.832Z,22.77
2019-01-08T07:02:38.218Z,21.90
2019-01-08T07:07:30.096Z,18.27
2019-01-08T07:12:22.430Z,28.30
2019-01-08T07:17:14.509Z,19.30
2019-01-08T07:22:06.892Z,25.63
2019-01-08T07:26:59.025Z,26.00
2019-01-08T07:31:51.093Z,38.37
2019-01-08T07:36:43.488Z,113.67
2019-01-08T07:41:35.956Z,68.60
2019-01-08T07:46:27.813Z,120.00
2019-01-08T07:51:20.453Z,39.17
2019-01-08T07:56:12.645Z,17.30
2019-01-08T08:01:04.830Z,16.67
2019-01-08T08:05:57.109Z,14.33
2019-01-08T08:10:49.217Z,13.43
2019-01-08T08:15:41.068Z,16.40
2019-01-08T08:20:32.872Z,15.50
2019-01-08T08:25:25.044Z,20.50
2019-01-08T08:30:17.591Z,16.33
2019-01-08T08:35:09.993Z,14.27
2019-01-08T08:40:02.521Z,16.10
2019-01-08T08:44:55.027Z,16.47
2019-01-08T08:49:47.497Z,15.03
2019-01-08T08:54:39.786Z,18.73
2019-01-08T08:59:31.869Z,15.93
2019-01-08T09:04:24.073Z,12.57
2019-01-08T09:09:16.170Z,14.73
2019-01-08T09:14:08.188Z,16.37
2019-01-08T09:19:00.401Z,16.73
2019-01-08T09:23:52.507Z,17.07
2019-01-08T09:28:44.574Z,17.80
2019-01-08T09:33:37.075Z,20.73
2019-01-08T09:38:29.065Z,19.43
2019-01-08T09:43:21.105Z,15.33
2019-01-08T09:48:13.461Z,19.50
2019-01-08T09:53:05.712Z,18.42
2019-01-08T09:57:58.285Z,13.83
2019-01-08T10:02:50.632Z,17.98
2019-01-08T10:07:42.893Z,16.30
2019-01-08T10:12:35.939Z,16.32
2019-01-08T10:17:28.234Z,20.23
2019-01-08T10:22:20.553Z,16.97
2019-01-08T10:27:12.737Z,18.75
2019-01-08T10:32:04.885Z,22.30
2019-01-08T10:36:57.329Z,17.45
2019-01-08T10:41:49.537Z,14.47
2019-01-08T10:46:41.837Z,14.55
2019-01-08T10:51:33.882Z,18.12
2019-01-08T10:56:26.033Z,17.52
2019-01-08T11:01:18.469Z,13.48
2019-01-08T11:06:10.571Z,9.83
2019-01-08T11:11:02.852Z,14.35
2019-01-08T11:15:55.042Z,19.98
2019-01-08T11:20:47.144Z,14.00
2019-01-08T11:25:39.372Z,14.98
2019-01-08T11:30:31.852Z,14.78
2019-01-08T11:35:23.697Z,15.85
2019-01-08T11:40:17.407Z,11.75
2019-01-08T11:45:10.085Z,10.53
2019-01-08T11:50:02.400Z,12.37
2019-01-08T11:54:54.810Z,15.13
2019-01-08T11:59:48.222Z,12.20
2019-01-08T12:04:40.468Z,19.83
2019-01-08T12:09:33.151Z,11.77
2019-01-08T12:14:25.247Z,15.47
2019-01-08T12:19:17.390Z,11.27
2019-01-08T12:24:09.844Z,21.80
2019-01-08T12:29:01.966Z,19.13
2019-01-08T12:33:54.046Z,14.23
2019-01-08T12:38:46.349Z,10.10
2019-01-08T12:43:38.400Z,13.10
2019-01-08T12:48:30.512Z,10.97
2019-01-08T12:53:22.939Z,9.33
2019-01-08T12:58:15.442Z,9.73
2019-01-08T13:03:07.852Z,10.07
2019-01-08T13:08:00.181Z,7.60
2019-01-08T13:12:52.741Z,8.83
2019-01-08T13:17:44.881Z,9.23
2019-01-08T13:22:37.192Z,10.90
2019-01-08T13:27:29.565Z,8.13
2019-01-08T13:32:23.341Z,9.70
2019-01-08T13:37:15.793Z,7.37
2019-01-08T13:42:08.169Z,8.43
2019-01-08T13:47:01.350Z,10.73
2019-01-08T13:51:53.617Z,7.30
2019-01-08T13:56:45.897Z,7.63
2019-01-08T14:01:38.121Z,7.57
2019-01-08T14:06:30.500Z,7.87
2019-01-08T14:11:22.770Z,6.93
2019-01-08T14:16:15.017Z,9.40
2019-01-08T14:21:07.584Z,8.67
2019-01-08T14:25:59.780Z,4.57
2019-01-08T14:30:51.760Z,5.87
2019-01-08T14:35:43.959Z,5.87
2019-01-08T14:40:36.257Z,6.90
2019-01-08T14:45:28.441Z,7.73
2019-01-08T14:50:20.789Z,7.50
2019-01-08T14:55:12.978Z,8.43
2019-01-08T15:00:06.177Z,7.83
2019-01-08T15:04:58.125Z,5.50
2019-01-08T15:09:50.436Z,7.50
2019-01-08T15:14:42.829Z,9.80
2019-01-08T15:19:34.884Z,8.57
2019-01-08T15:24:27.208Z,10.23
2019-01-08T15:29:19.338Z,6.30
2019-01-08T15:34:11.381Z,9.00
2019-01-08T15:39:03.661Z,7.50
2019-01-08T15:43:56.061Z,11.30
2019-01-08T15:48:48.196Z,9.53
2019-01-08T15:53:40.381Z,12.57
2019-01-08T15:58:32.593Z,17.27
2019-01-08T16:03:24.957Z,26.00
2019-01-08T16:08:17.005Z,18.53
2019-01-08T16:13:09.045Z,20.10
2019-01-08T16:18:01.441Z,13.40
2019-01-08T16:22:53.710Z,15.57
2019-01-08T16:27:45.743Z,21.70
2019-01-08T16:32:38.016Z,16.17
2019-01-08T16:37:30.208Z,54.33
2019-01-08T16:42:22.738Z,8.80
2019-01-08T16:47:15.168Z,8.63
2019-01-08T16:52:07.340Z,13.23
2019-01-08T16:56:59.712Z,9.17
2019-01-08T17:01:52.056Z,9.20
2019-01-08T17:06:44.133Z,14.33
2019-01-08T17:11:36.089Z,11.53
2019-01-08T17:16:28.256Z,9.43
2019-01-08T17:21:20.372Z,10.53
2019-01-08T17:26:12.561Z,11.97
2019-01-08T17:31:04.799Z,11.20
2019-01-08T17:35:56.893Z,12.63
2019-01-08T17:40:49.126Z,9.10
2019-01-08T17:45:41.225Z,48.27
2019-01-08T17:50:33.364Z,8.30
2019-01-08T17:55:25.656Z,12.43
2019-01-08T18:00:18.213Z,22.17
2019-01-08T18:05:10.674Z,28.93
2019-01-08T18:10:02.969Z,13.77
2019-01-08T18:14:55.405Z,11.80
2019-01-08T18:19:47.694Z,17.10
2019-01-08T18:24:39.764Z,12.53
2019-01-08T18:29:32.057Z,14.67
2019-01-08T18:34:24.469Z,10.03
2019-01-08T18:39:16.796Z,10.63
2019-01-08T18:44:09.213Z,11.17
2019-01-08T18:49:01.400Z,14.37
2019-01-08T18:53:53.242Z,16.93
2019-01-08T18:58:45.387Z,20.90
2019-01-08T19:03:37.572Z,19.10
2019-01-08T19:09:05.669Z,18.87
2019-01-08T19:13:57.920Z,18.20
2019-01-08T19:18:50.043Z,17.27
2019-01-08T19:23:42.238Z,13.30
2019-01-08T19:28:34.506Z,15.03
2019-01-08T19:33:26.590Z,13.67
2019-01-08T19:38:18.706Z,15.90
2019-01-08T19:43:11.157Z,16.87
2019-01-08T19:48:03.623Z,15.77
2019-01-08T19:52:56.122Z,12.20
2019-01-08T19:57:48.257Z,12.73
2019-01-08T20:02:40.301Z,9.00
2019-01-08T20:07:32.521Z,11.97
2019-01-08T20:12:24.948Z,13.97
2019-01-08T20:17:17.382Z,15.50
2019-01-08T20:22:10.663Z,7.20
2019-01-08T20:27:02.624Z,13.53
2019-01-08T20:31:55.093Z,11.23
2019-01-08T20:36:47.462Z,16.50
2019-01-08T20:41:39.519Z,15.93
2019-01-08T20:46:31.970Z,15.40
2019-01-08T20:51:24.172Z,10.17
2019-01-08T20:56:16.493Z,13.93
2019-01-08T21:01:08.967Z,10.37
2019-01-08T21:06:01.534Z,14.10
2019-01-08T21:10:53.789Z,12.50
2019-01-08T21:15:46.346Z,10.13
2019-01-08T21:20:38.698Z,10.73
2019-01-08T21:25:31.343Z,11.93
2019-01-08T21:30:23.572Z,9.37
2019-01-08T21:35:15.501Z,10.87
2019-01-08T21:40:08.182Z,12.43
2019-01-08T21:45:00.932Z,14.90
2019-01-08T21:49:53.550Z,13.23
2019-01-08T21:54:46.214Z,22.67
2019-01-08T21:59:38.892Z,12.80
2019-01-08T22:04:31.226Z,23.57
2019-01-08T22:09:23.321Z,17.37
2019-01-08T22:14:15.465Z,18.57
2019-01-08T22:19:07.566Z,18.23
2019-01-08T22:23:59.712Z,23.67
2019-01-08T22:28:52.282Z,12.57
2019-01-08T22:33:44.427Z,13.30
2019-01-08T22:38:36.596Z,18.30
2019-01-08T22:43:29.217Z,8.60
2019-01-08T22:48:21.377Z,15.03
2019-01-08T22:53:14.561Z,14.93
2019-01-08T22:58:07.181Z,12.97
2019-01-08T23:02:59.544Z,12.57
2019-01-08T23:07:52.072Z,13.53
2019-01-08T23:12:44.500Z,11.70
2019-01-08T23:17:36.432Z,13.03
2019-01-08T23:22:29.103Z,14.30
2019-01-08T23:27:21.206Z,12.60
2019-01-08T23:32:13.412Z,13.57
2019-01-08T23:37:05.634Z,12.37
2019-01-08T23:41:57.898Z,21.73
2019-01-08T23:46:50.349Z,18.17
2019-01-08T23:51:42.609Z,10.70
2019-01-08T23:56:35.120Z,9.43
